Time;durP1;ratioP1;P1;durP2;ratioP2;P2;SDS_P1;SDS_P2;PMS_P1;PMS_P2;Temp;Humidity;BMP_temperature;BMP_pressure;BME280_temperature;BME280_humidity;BME280_pressure;Samples;Min_cycle;Max_cycle;Signal;HPM_P1;HPM_P2
2021/11/15 00:00:42;;;;;;;38.10;16.90;;;8.20;99.90;;;;;;4984071;28;20046;-95
2021/11/15 00:03:13;;;;;;;45.22;18.42;;;8.20;99.90;;;;;;5011198;28;20026;-96
2021/11/15 00:05:40;;;;;;;41.03;18.43;;;8.30;99.90;;;;;;4983649;28;20027;-95
2021/11/15 00:08:07;;;;;;;30.80;15.90;;;8.30;99.90;;;;;;4999267;28;20042;-95
2021/11/15 00:10:40;;;;;;;39.55;17.92;;;8.30;99.90;;;;;;4997579;28;20027;-95
2021/11/15 00:13:07;;;;;;;34.63;17.77;;;8.30;99.90;;;;;;5002528;28;20049;-95
2021/11/15 00:15:34;;;;;;;32.08;16.35;;;8.30;99.90;;;;;;5003474;28;20039;-95
2021/11/15 00:18:00;;;;;;;23.52;13.63;;;8.30;99.90;;;;;;5001065;28;20122;-96
2021/11/15 00:20:29;;;;;;;42.80;17.42;;;8.30;99.90;;;;;;4998711;28;20037;-94
2021/11/15 00:22:56;;;;;;;37.03;18.13;;;8.30;99.90;;;;;;5002031;28;20107;-94
2021/11/15 00:25:22;;;;;;;38.63;18.75;;;8.40;99.90;;;;;;4982763;28;20057;-95
2021/11/15 00:27:49;;;;;;;36.00;16.40;;;8.40;99.90;;;;;;5004088;28;20026;-95
2021/11/15 00:30:15;;;;;;;39.50;18.58;;;8.40;99.90;;;;;;5001689;28;20034;-94
2021/11/15 00:32:43;;;;;;;37.58;17.30;;;8.30;99.90;;;;;;4995919;28;20058;-95
2021/11/15 00:35:12;;;;;;;35.13;16.98;;;8.30;99.90;;;;;;4978854;28;20027;-95
2021/11/15 00:37:40;;;;;;;27.83;13.95;;;8.30;99.90;;;;;;4999756;28;20087;-95
2021/11/15 00:40:31;;;;;;;27.48;15.23;;;8.30;99.90;;;;;;5000140;28;20014;-95
2021/11/15 00:43:06;;;;;;;28.98;15.90;;;8.30;99.90;;;;;;4996084;28;20087;-95
2021/11/15 00:45:55;;;;;;;31.65;16.25;;;8.30;99.90;;;;;;5013359;28;20015;-95
2021/11/15 00:48:27;;;;;;;36.63;16.98;;;8.30;99.90;;;;;;5007963;28;20046;-96
2021/11/15 00:51:20;;;;;;;37.45;18.02;;;8.40;99.90;;;;;;5002615;28;20034;-95
2021/11/15 00:53:56;;;;;;;43.47;18.10;;;8.40;99.90;;;;;;5005132;28;20090;-96
2021/11/15 00:56:22;;;;;;;38.80;17.83;;;8.40;99.90;;;;;;5008107;28;20066;-96
2021/11/15 00:58:51;;;;;;;40.88;17.63;;;8.40;99.90;;;;;;4987818;28;20027;-94
2021/11/15 01:01:18;;;;;;;34.40;16.95;;;8.40;99.90;;;;;;4981574;28;20031;-95
2021/11/15 01:03:46;;;;;;;36.38;17.70;;;8.40;99.90;;;;;;4987770;28;20066;-96
2021/11/15 01:06:21;;;;;;;27.70;14.02;;;8.40;99.90;;;;;;5000710;28;20046;-95
2021/11/15 01:09:17;;;;;;;40.10;16.88;;;8.40;99.90;;;;;;4998105;28;20039;-96
2021/11/15 01:11:47;;;;;;;31.25;14.45;;;8.40;99.90;;;;;;4996291;28;20023;-96
2021/11/15 01:14:19;;;;;;;32.08;14.65;;;8.40;99.90;;;;;;5008107;28;20026;-96
2021/11/15 01:16:47;;;;;;;38.35;16.13;;;8.40;99.90;;;;;;5006774;28;20030;-95
2021/11/15 01:19:29;;;;;;;25.77;13.07;;;8.50;99.90;;;;;;5006293;28;20023;-95
2021/11/15 01:22:03;;;;;;;40.60;15.88;;;8.50;99.90;;;;;;5001922;28;20038;-96
2021/11/15 01:25:05;;;;;;;38.72;15.73;;;8.50;99.90;;;;;;4996009;28;20025;-96
2021/11/15 01:27:40;;;;;;;42.85;15.95;;;8.50;99.90;;;;;;5009198;28;20050;-96
2021/11/15 01:30:13;;;;;;;40.47;16.40;;;8.50;99.90;;;;;;5003329;28;20042;-95
2021/11/15 01:32:45;;;;;;;47.17;16.70;;;8.50;99.90;;;;;;4998429;28;20026;-95
2021/11/15 01:35:16;;;;;;;47.13;16.83;;;8.50;99.90;;;;;;4997587;28;20031;-95
2021/11/15 01:38:11;;;;;;;43.63;16.65;;;8.50;99.90;;;;;;5000424;28;20062;-95
2021/11/15 01:40:53;;;;;;;42.85;17.38;;;8.50;99.90;;;;;;5003118;28;20057;-95
2021/11/15 01:43:20;;;;;;;46.40;16.83;;;8.50;99.90;;;;;;4984824;28;20031;-95
2021/11/15 01:45:47;;;;;;;48.17;17.65;;;8.60;99.90;;;;;;5005992;28;20026;-95
2021/11/15 01:48:15;;;;;;;35.75;15.23;;;8.60;99.90;;;;;;5010723;28;20010;-95
2021/11/15 01:50:46;;;;;;;38.38;15.70;;;8.70;99.90;;;;;;5013647;28;20039;-95
2021/11/15 01:53:12;;;;;;;48.78;18.63;;;8.70;99.90;;;;;;5006584;28;20026;-95
2021/11/15 01:55:40;;;;;;;45.75;18.30;;;8.80;99.90;;;;;;5007805;28;20026;-95
2021/11/15 01:58:19;;;;;;;43.38;18.13;;;8.90;99.90;;;;;;4993868;28;20046;-95
2021/11/15 02:00:57;;;;;;;40.42;16.73;;;8.90;99.90;;;;;;4997695;28;20031;-95
2021/11/15 02:03:25;;;;;;;47.33;19.95;;;8.90;99.90;;;;;;4994207;28;20094;-95
2021/11/15 02:05:57;;;;;;;50.63;19.75;;;8.90;99.90;;;;;;5003471;28;20023;-96
2021/11/15 02:08:28;;;;;;;50.95;18.95;;;9.00;99.90;;;;;;5017401;28;20026;-95
2021/11/15 02:10:56;;;;;;;48.78;19.73;;;9.00;99.90;;;;;;5005563;28;20034;-95
2021/11/15 02:13:46;;;;;;;44.15;17.08;;;8.90;99.90;;;;;;5001721;28;20031;-96
2021/11/15 02:16:13;;;;;;;52.15;20.25;;;8.90;99.90;;;;;;5002284;28;20061;-95
2021/11/15 02:18:39;;;;;;;45.63;20.08;;;8.90;99.90;;;;;;4981634;28;20197;-96
2021/11/15 02:21:13;;;;;;;29.88;13.50;;;8.90;99.90;;;;;;4998903;28;20027;-94
2021/11/15 02:23:43;;;;;;;40.22;18.48;;;9.00;99.90;;;;;;5000340;28;20122;-95
2021/11/15 02:26:12;;;;;;;45.13;19.17;;;9.00;99.90;;;;;;5000972;28;20046;-95
2021/11/15 02:28:43;;;;;;;50.78;20.75;;;9.00;99.90;;;;;;5003464;28;20033;-95
2021/11/15 02:31:14;;;;;;;37.03;16.88;;;9.00;99.90;;;;;;4999442;28;20027;-95
2021/11/15 02:33:40;;;;;;;47.88;20.58;;;8.90;99.90;;;;;;4995366;28;20034;-95
2021/11/15 02:36:08;;;;;;;45.67;20.15;;;8.90;99.90;;;;;;5001043;28;20043;-96
2021/11/15 02:38:34;;;;;;;44.90;20.75;;;8.90;99.90;;;;;;4997336;28;20447;-95
2021/11/15 02:41:03;;;;;;;53.13;20.60;;;8.90;99.90;;;;;;5006447;28;20026;-95
2021/11/15 02:43:32;;;;;;;57.97;23.30;;;8.90;99.90;;;;;;5008353;28;20022;-95
2021/11/15 02:46:04;;;;;;;48.15;21.00;;;8.90;99.90;;;;;;5000815;28;20049;-95
2021/11/15 02:48:33;;;;;;;47.65;20.40;;;8.90;99.90;;;;;;5005875;28;20081;-95
2021/11/15 02:51:03;;;;;;;49.90;23.15;;;8.90;99.90;;;;;;5006591;28;20027;-95
2021/11/15 02:53:32;;;;;;;34.25;16.23;;;8.90;99.90;;;;;;5003594;28;20015;-95
2021/11/15 02:55:59;;;;;;;51.60;21.20;;;8.90;99.90;;;;;;5006353;28;20027;-96
2021/11/15 02:58:26;;;;;;;53.55;22.48;;;8.90;99.90;;;;;;4987077;28;20061;-93
2021/11/15 03:01:09;;;;;;;40.03;18.13;;;8.90;99.90;;;;;;4992401;28;20046;-96
2021/11/15 03:03:37;;;;;;;53.08;22.95;;;8.80;99.90;;;;;;5006662;28;20045;-95
2021/11/15 03:06:04;;;;;;;44.67;19.85;;;8.80;99.90;;;;;;5000061;28;20163;-95
2021/11/15 03:08:30;;;;;;;56.42;21.60;;;8.80;99.90;;;;;;4998087;28;20019;-95
2021/11/15 03:11:00;;;;;;;52.08;22.60;;;8.80;99.90;;;;;;4997416;28;20125;-96
2021/11/15 03:13:32;;;;;;;49.25;22.90;;;8.80;99.90;;;;;;4998464;28;20073;-95
2021/11/15 03:15:59;;;;;;;46.88;21.05;;;8.80;99.90;;;;;;5000145;28;20673;-94
2021/11/15 03:18:31;;;;;;;54.20;21.50;;;8.80;99.90;;;;;;4995137;28;20062;-95
2021/11/15 03:20:59;;;;;;;40.03;18.25;;;8.80;99.90;;;;;;4993878;28;20026;-95
2021/11/15 03:23:31;;;;;;;47.47;19.83;;;8.80;99.90;;;;;;4999679;28;20014;-96
2021/11/15 03:26:02;;;;;;;53.55;19.42;;;8.70;99.90;;;;;;4966078;28;20038;-95
2021/11/15 03:28:38;;;;;;;46.03;19.25;;;8.70;99.90;;;;;;5003494;28;20018;-96
2021/11/15 03:31:34;;;;;;;50.63;20.75;;;8.70;99.90;;;;;;4999136;28;20027;-95
2021/11/15 03:34:09;;;;;;;45.35;20.00;;;8.60;99.90;;;;;;4985059;28;20034;-95
2021/11/15 03:36:37;;;;;;;51.85;20.23;;;8.60;99.90;;;;;;4998583;28;20177;-95
2021/11/15 03:39:04;;;;;;;49.08;19.40;;;8.60;99.90;;;;;;4994083;28;20082;-95
2021/11/15 03:41:38;;;;;;;53.90;20.40;;;8.60;99.90;;;;;;4995695;28;20062;-96
2021/11/15 03:44:06;;;;;;;47.47;19.38;;;8.60;99.90;;;;;;5004461;28;20027;-94
2021/11/15 03:46:33;;;;;;;52.33;17.70;;;8.50;99.90;;;;;;5002770;28;20026;-94
2021/11/15 03:49:00;;;;;;;50.42;20.63;;;8.50;99.90;;;;;;4994062;28;20042;-96
2021/11/15 03:51:26;;;;;;;50.67;19.65;;;8.50;99.90;;;;;;4995714;28;20023;-94
2021/11/15 03:53:53;;;;;;;46.72;18.30;;;8.50;99.90;;;;;;4998854;28;20022;-95
2021/11/15 03:56:24;;;;;;;44.83;18.25;;;8.50;99.90;;;;;;5000326;28;20031;-95
2021/11/15 03:58:50;;;;;;;;;;;8.50;99.90;;;;;;4997443;28;20019;-95
2021/11/15 04:01:21;;;;;;;45.42;18.67;;;8.50;99.90;;;;;;4994899;28;19912;-95
2021/11/15 04:03:47;;;;;;;48.60;19.30;;;8.40;99.90;;;;;;4996867;28;20091;-95
2021/11/15 04:06:25;;;;;;;48.33;19.13;;;8.50;99.90;;;;;;4990203;28;20050;-95
2021/11/15 04:08:55;;;;;;;48.75;19.55;;;8.40;99.90;;;;;;4990050;28;20018;-95
2021/11/15 04:11:22;;;;;;;52.53;20.73;;;8.40;99.90;;;;;;4997677;28;20045;-95
2021/11/15 04:13:51;;;;;;;43.35;18.60;;;8.40;99.90;;;;;;4992605;28;20029;-95
2021/11/15 04:16:19;;;;;;;51.50;20.35;;;8.40;99.90;;;;;;4997439;28;20065;-96
2021/11/15 04:18:57;;;;;;;53.00;20.58;;;8.50;99.90;;;;;;4999427;28;20034;-94
2021/11/15 04:21:25;;;;;;;46.25;19.35;;;8.40;99.90;;;;;;5000542;28;20023;-93
2021/11/15 04:23:51;;;;;;;30.70;14.02;;;8.50;99.90;;;;;;4997217;28;20026;-94
2021/11/15 04:26:17;;;;;;;40.30;16.02;;;8.50;99.90;;;;;;4999250;28;20058;-95
2021/11/15 04:28:44;;;;;;;37.30;15.35;;;8.50;99.90;;;;;;4999148;28;20109;-95
2021/11/15 04:31:10;;;;;;;48.58;19.30;;;8.50;99.90;;;;;;5002168;28;20030;-95
2021/11/15 04:33:37;;;;;;;50.55;19.70;;;8.50;99.90;;;;;;4996394;28;20113;-95
2021/11/15 04:36:04;;;;;;;47.08;20.23;;;8.50;99.90;;;;;;4995043;28;20046;-95
2021/11/15 04:38:35;;;;;;;46.40;19.40;;;8.50;99.90;;;;;;4995615;28;20015;-95
2021/11/15 04:41:01;;;;;;;32.15;14.63;;;8.60;99.90;;;;;;4988168;28;20030;-95
2021/11/15 04:43:27;;;;;;;49.15;18.42;;;8.60;99.90;;;;;;4995306;28;20019;-95
2021/11/15 04:45:53;;;;;;;48.10;19.63;;;8.70;99.90;;;;;;4999496;28;20038;-96
2021/11/15 04:48:20;;;;;;;43.92;16.17;;;8.70;99.90;;;;;;5003123;28;20027;-94
2021/11/15 04:50:47;;;;;;;38.35;15.90;;;8.70;99.90;;;;;;5003610;28;20141;-96
2021/11/15 04:53:14;;;;;;;43.55;16.38;;;8.70;99.90;;;;;;4999769;28;20035;-95
2021/11/15 04:55:40;;;;;;;45.35;18.23;;;8.70;99.90;;;;;;4991466;28;20042;-96
2021/11/15 04:58:07;;;;;;;44.50;16.70;;;8.70;99.90;;;;;;4994282;28;20419;-96
2021/11/15 05:00:36;;;;;;;38.10;14.75;;;8.60;99.90;;;;;;4994749;28;20031;-96
2021/11/15 05:03:02;;;;;;;44.28;15.98;;;8.70;99.90;;;;;;4994390;28;20059;-96
2021/11/15 05:05:36;;;;;;;32.53;13.25;;;8.60;99.90;;;;;;4984036;28;20485;-95
2021/11/15 05:08:06;;;;;;;41.25;15.05;;;8.60;99.90;;;;;;4988156;28;20031;-96
2021/11/15 05:10:33;;;;;;;33.85;14.27;;;8.60;99.90;;;;;;5003720;28;20129;-95
2021/11/15 05:13:02;;;;;;;40.00;15.15;;;8.60;99.90;;;;;;4979102;28;20038;-95
2021/11/15 05:15:28;;;;;;;45.30;17.60;;;8.60;99.90;;;;;;5005376;28;20045;-95
2021/11/15 05:17:54;;;;;;;46.28;17.60;;;8.60;99.90;;;;;;5001998;28;20031;-94
2021/11/15 05:20:23;;;;;;;32.05;13.07;;;8.60;99.90;;;;;;4994857;28;20030;-95
2021/11/15 05:22:50;;;;;;;42.05;16.00;;;8.60;99.90;;;;;;4980875;28;20527;-95
2021/11/15 05:25:18;;;;;;;45.83;15.70;;;8.60;99.90;;;;;;5001606;28;20033;-96
2021/11/15 05:27:44;;;;;;;38.63;15.23;;;8.60;99.90;;;;;;4994367;28;20039;-95
2021/11/15 05:30:14;;;;;;;40.15;15.57;;;8.60;99.90;;;;;;5003006;28;20069;-96
2021/11/15 05:32:40;;;;;;;44.78;16.33;;;8.50;99.90;;;;;;5001261;28;20050;-95
2021/11/15 05:35:08;;;;;;;53.88;16.48;;;8.50;99.90;;;;;;5000158;28;20138;-93
2021/11/15 05:37:37;;;;;;;41.33;15.45;;;8.50;99.90;;;;;;5004111;28;20054;-94
2021/11/15 05:40:06;;;;;;;39.15;15.55;;;8.40;99.90;;;;;;5001293;28;20083;-94
2021/11/15 05:42:32;;;;;;;51.55;16.80;;;8.40;99.90;;;;;;5000364;28;20026;-93
2021/11/15 05:44:58;;;;;;;41.83;15.02;;;8.40;99.90;;;;;;4985627;28;20503;-94
2021/11/15 05:47:23;;;;;;;35.70;13.73;;;8.40;99.90;;;;;;4998438;28;20029;-95
2021/11/15 05:49:50;;;;;;;50.95;17.27;;;8.40;99.90;;;;;;4998419;28;20031;-95
2021/11/15 05:52:18;;;;;;;46.55;15.20;;;8.40;99.90;;;;;;5001356;28;20031;-95
2021/11/15 05:54:45;;;;;;;40.17;14.40;;;8.40;99.90;;;;;;5003489;28;20042;-96
2021/11/15 05:57:12;;;;;;;30.10;13.18;;;8.40;99.90;;;;;;4993518;28;20034;-95
2021/11/15 05:59:38;;;;;;;46.53;16.77;;;8.50;99.90;;;;;;5001489;28;20058;-95
2021/11/15 06:02:04;;;;;;;48.35;16.08;;;8.50;99.90;;;;;;5003240;28;20030;-94
2021/11/15 06:04:31;;;;;;;41.63;15.73;;;8.50;99.90;;;;;;5004843;28;20094;-95
2021/11/15 06:06:57;;;;;;;49.53;16.40;;;8.50;99.90;;;;;;5010132;28;20042;-95
2021/11/15 06:09:25;;;;;;;46.97;16.48;;;8.50;99.90;;;;;;5004280;28;20026;-95
2021/11/15 06:11:52;;;;;;;43.10;14.90;;;8.50;99.90;;;;;;5000328;28;20022;-95
2021/11/15 06:14:20;;;;;;;42.40;14.77;;;8.50;99.90;;;;;;5001998;28;20053;-96
2021/11/15 06:16:46;;;;;;;37.47;14.80;;;8.40;99.90;;;;;;5006256;28;20065;-95
2021/11/15 06:19:12;;;;;;;37.60;15.30;;;8.40;99.90;;;;;;4998112;28;20023;-95
2021/11/15 06:21:38;;;;;;;41.33;15.50;;;8.40;99.90;;;;;;4995222;28;20057;-94
2021/11/15 06:24:05;;;;;;;42.20;14.90;;;8.40;99.90;;;;;;4993015;28;20109;-94
2021/11/15 06:26:31;;;;;;;40.55;15.80;;;8.40;99.90;;;;;;4989506;28;20169;-96
2021/11/15 06:28:57;;;;;;;43.13;15.35;;;8.40;99.90;;;;;;4989416;28;20030;-94
2021/11/15 06:31:23;;;;;;;42.78;15.40;;;8.40;99.90;;;;;;4991504;28;20070;-95
2021/11/15 06:33:50;;;;;;;45.90;16.13;;;8.40;99.90;;;;;;4991986;28;20027;-95
2021/11/15 06:36:18;;;;;;;46.20;17.00;;;8.40;99.90;;;;;;5007016;28;20069;-95
2021/11/15 06:38:45;;;;;;;46.67;15.25;;;8.40;99.90;;;;;;4995235;28;20106;-95
2021/11/15 06:41:12;;;;;;;43.40;16.17;;;8.40;99.90;;;;;;4998317;28;20014;-95
2021/11/15 06:43:47;;;;;;;43.85;15.07;;;8.40;99.90;;;;;;5007673;28;20026;-95
2021/11/15 06:46:17;;;;;;;47.33;16.35;;;8.40;99.90;;;;;;5004369;28;20027;-95
2021/11/15 06:48:47;;;;;;;40.70;15.05;;;8.40;99.90;;;;;;5001251;28;20045;-95
2021/11/15 06:51:13;;;;;;;47.13;15.30;;;8.40;99.90;;;;;;5004917;28;20027;-96
2021/11/15 06:53:42;;;;;;;38.72;16.25;;;8.40;99.90;;;;;;4990957;28;20031;-95
2021/11/15 06:56:12;;;;;;;40.20;13.93;;;8.40;99.90;;;;;;4992098;28;20083;-94
2021/11/15 06:58:40;;;;;;;48.53;15.70;;;8.40;99.90;;;;;;5010476;28;20029;-95
2021/11/15 07:01:08;;;;;;;46.55;14.45;;;8.40;99.90;;;;;;5002762;28;20063;-95
2021/11/15 07:03:47;;;;;;;44.42;15.43;;;8.40;99.90;;;;;;4984988;28;20043;-94
2021/11/15 07:06:18;;;;;;;36.75;14.02;;;8.40;99.90;;;;;;4990218;28;20019;-95
2021/11/15 07:08:48;;;;;;;;;;;8.40;99.90;;;;;;4987275;28;20031;-95
2021/11/15 07:11:23;;;;;;;46.57;14.87;;;8.40;99.90;;;;;;5006277;28;19917;-95
2021/11/15 07:13:57;;;;;;;41.90;15.52;;;8.40;99.90;;;;;;4964959;28;20035;-95
2021/11/15 07:16:54;;;;;;;41.78;14.80;;;8.40;99.90;;;;;;5001848;28;20031;-94
2021/11/15 07:22:56;;;;;;;46.53;14.80;;;8.40;99.90;;;;;;5002208;28;20060;-95
2021/11/15 07:25:24;;;;;;;40.72;12.73;;;8.40;99.90;;;;;;4993088;28;20039;-94
2021/11/15 07:27:52;;;;;;;41.28;13.57;;;8.50;99.90;;;;;;4984301;28;20511;-94
2021/11/15 07:30:21;;;;;;;44.75;16.45;;;8.50;99.90;;;;;;4995541;28;20502;-95
2021/11/15 07:32:52;;;;;;;38.17;13.75;;;8.50;99.90;;;;;;4998592;28;20041;-94
2021/11/15 07:35:20;;;;;;;;;;;8.50;99.90;;;;;;4990138;28;20033;-95
2021/11/15 07:37:49;;;;;;;38.35;13.57;;;8.50;99.90;;;;;;5007893;28;19913;-95
2021/11/15 07:40:18;;;;;;;37.30;13.48;;;8.50;99.90;;;;;;5000449;28;20027;-95
2021/11/15 07:42:48;;;;;;;45.67;14.98;;;8.50;99.90;;;;;;4988672;28;20098;-95
2021/11/15 07:45:17;;;;;;;38.60;14.50;;;8.50;99.90;;;;;;5005546;28;20022;-94
2021/11/15 07:48:10;;;;;;;38.10;13.95;;;8.50;99.90;;;;;;5088533;23;20057;-95
2021/11/15 08:10:09;;;;;;;45.17;14.82;;;8.50;99.90;;;;;;5522727;23;21496;-92
2021/11/15 08:12:39;;;;;;;44.42;16.17;;;8.60;99.90;;;;;;4974544;28;20085;-92
2021/11/15 08:15:08;;;;;;;51.25;15.25;;;8.60;99.90;;;;;;5293135;23;20045;-94
2021/11/15 08:17:36;;;;;;;48.47;15.10;;;8.60;99.90;;;;;;5018164;28;20018;-94
2021/11/15 08:20:03;;;;;;;45.33;15.60;;;8.50;99.90;;;;;;5017898;28;20042;-94
2021/11/15 08:22:29;;;;;;;43.83;14.80;;;8.60;99.90;;;;;;5196982;23;20110;-95
2021/11/15 08:25:36;;;;;;;48.63;15.80;;;8.60;99.90;;;;;;4996627;28;20010;-96
2021/11/15 08:28:05;;;;;;;48.00;16.00;;;8.60;99.90;;;;;;4935090;29;20092;-94
2021/11/15 08:33:19;;;;;;;41.25;14.52;;;8.60;99.90;;;;;;5046044;28;20038;-94
2021/11/15 08:35:48;;;;;;;40.70;13.70;;;8.60;99.90;;;;;;5051253;28;20064;-96
2021/11/15 08:38:19;;;;;;;41.88;13.93;;;8.60;99.90;;;;;;5048746;28;20040;-95
2021/11/15 08:40:51;;;;;;;46.58;14.77;;;8.70;99.90;;;;;;5050453;28;20015;-95
2021/11/15 08:46:15;;;;;;;41.50;13.30;;;8.70;99.90;;;;;;5037228;28;20031;-96
2021/11/15 08:48:44;;;;;;;46.53;16.00;;;8.70;99.90;;;;;;5049332;28;20006;-94
2021/11/15 08:51:13;;;;;;;44.05;14.40;;;8.70;99.90;;;;;;5047850;28;20033;-96
2021/11/15 08:53:40;;;;;;;39.28;14.68;;;8.80;99.90;;;;;;5057730;28;20033;-96
2021/11/15 08:56:09;;;;;;;44.50;14.85;;;8.80;99.90;;;;;;5060935;28;20093;-96
2021/11/15 08:58:36;;;;;;;41.95;14.20;;;8.80;99.90;;;;;;5061415;28;20045;-95
2021/11/15 09:01:02;;;;;;;39.35;14.90;;;8.90;99.90;;;;;;5061304;28;20014;-95
2021/11/15 09:03:29;;;;;;;45.85;15.55;;;9.00;99.90;;;;;;5057235;28;20093;-96
2021/11/15 09:05:55;;;;;;;41.75;14.40;;;9.00;99.90;;;;;;5052166;28;20052;-96
2021/11/15 09:08:22;;;;;;;40.33;14.95;;;9.00;99.90;;;;;;5055635;28;20085;-96
2021/11/15 09:10:49;;;;;;;42.95;14.45;;;9.10;99.90;;;;;;5048788;28;20112;-95
2021/11/15 09:13:15;;;;;;;40.35;14.18;;;9.10;99.90;;;;;;5021452;28;20026;-94
2021/11/15 09:15:41;;;;;;;45.65;16.70;;;9.10;99.90;;;;;;5017660;28;20034;-93
2021/11/15 09:18:07;;;;;;;41.38;14.27;;;9.10;99.90;;;;;;5020965;28;20080;-94
2021/11/15 09:20:33;;;;;;;37.33;13.90;;;9.20;99.90;;;;;;5036066;28;20040;-94
2021/11/15 09:22:59;;;;;;;38.03;13.48;;;9.20;99.90;;;;;;5036728;28;20041;-95
2021/11/15 09:25:25;;;;;;;35.13;14.40;;;9.20;99.90;;;;;;5037168;28;20038;-94
2021/11/15 09:27:51;;;;;;;37.75;13.52;;;9.30;99.90;;;;;;5036631;28;20037;-92
2021/11/15 09:30:17;;;;;;;38.00;14.30;;;9.30;99.90;;;;;;5041577;28;20470;-94
2021/11/15 09:32:44;;;;;;;38.47;14.85;;;9.30;99.90;;;;;;5036918;28;20080;-96
2021/11/15 09:35:11;;;;;;;34.92;14.15;;;9.40;99.90;;;;;;5036754;28;20028;-95
2021/11/15 09:37:38;;;;;;;39.30;13.73;;;9.40;99.90;;;;;;5039847;28;20518;-93
2021/11/15 09:40:06;;;;;;;31.63;13.35;;;9.40;99.90;;;;;;5037476;28;20025;-93
2021/11/15 09:42:33;;;;;;;37.40;13.75;;;9.50;99.90;;;;;;5037630;28;20056;-93
2021/11/15 09:45:01;;;;;;;34.15;13.48;;;9.50;99.90;;;;;;5037131;28;20052;-94
2021/11/15 09:47:27;;;;;;;34.65;13.80;;;9.60;99.90;;;;;;5038044;28;20582;-94
2021/11/15 09:49:53;;;;;;;31.58;12.93;;;9.60;99.90;;;;;;5037550;28;20057;-93
2021/11/15 09:52:19;;;;;;;32.00;13.07;;;9.70;99.90;;;;;;5036310;28;20060;-94
2021/11/15 09:54:46;;;;;;;31.15;12.93;;;9.70;99.90;;;;;;5036176;28;20021;-93
2021/11/15 09:57:15;;;;;;;31.05;13.52;;;9.70;99.90;;;;;;5035543;28;20057;-94
2021/11/15 09:59:44;;;;;;;36.30;14.30;;;9.80;99.90;;;;;;5035261;28;20022;-92
2021/11/15 10:02:10;;;;;;;34.33;13.13;;;9.80;99.90;;;;;;5035517;28;20029;-94
2021/11/15 10:04:36;;;;;;;34.15;12.68;;;9.90;99.90;;;;;;5035370;28;20108;-94
2021/11/15 10:07:03;;;;;;;31.67;13.70;;;9.90;99.90;;;;;;5035809;28;20056;-94
2021/11/15 10:09:34;;;;;;;35.00;13.55;;;10.00;99.90;;;;;;5035913;28;20025;-94
2021/11/15 10:12:08;;;;;;;32.72;12.95;;;10.00;99.90;;;;;;5035550;28;20034;-94
2021/11/15 10:14:34;;;;;;;33.00;13.65;;;10.00;99.90;;;;;;5035721;28;20116;-95
2021/11/15 10:17:02;;;;;;;27.42;12.27;;;10.00;99.90;;;;;;5035450;28;20175;-93
2021/11/15 10:19:31;;;;;;;32.00;13.18;;;10.10;99.90;;;;;;5035667;28;20033;-94
2021/11/15 10:22:00;;;;;;;31.92;12.98;;;10.00;99.90;;;;;;5034564;28;20026;-95
2021/11/15 10:24:35;;;;;;;31.13;13.32;;;10.10;99.90;;;;;;5035215;28;20022;-95
2021/11/15 10:27:24;;;;;;;27.92;12.15;;;10.10;99.90;;;;;;5037434;28;20125;-95
2021/11/15 10:29:50;;;;;;;32.00;13.48;;;10.10;99.90;;;;;;5037360;28;20029;-95
2021/11/15 10:32:18;;;;;;;34.83;13.88;;;10.10;99.90;;;;;;5040986;28;20049;-94
2021/11/15 10:34:49;;;;;;;30.58;13.35;;;10.20;99.90;;;;;;5040678;28;20025;-95
2021/11/15 10:37:26;;;;;;;31.02;13.45;;;10.20;99.90;;;;;;5051621;28;20044;-95
2021/11/15 10:39:54;;;;;;;32.97;13.02;;;10.20;99.90;;;;;;5052968;28;20037;-94
2021/11/15 10:42:24;;;;;;;30.23;12.60;;;10.30;99.90;;;;;;5050326;28;20116;-94
2021/11/15 10:44:59;;;;;;;30.00;12.60;;;10.30;99.90;;;;;;5040054;28;20029;-95
2021/11/15 10:47:42;;;;;;;30.38;12.32;;;10.40;99.90;;;;;;5038967;28;20032;-94
2021/11/15 10:50:15;;;;;;;29.38;11.77;;;10.50;99.90;;;;;;5037152;28;20022;-94
2021/11/15 10:52:42;;;;;;;30.77;12.60;;;10.50;99.90;;;;;;5036773;28;20033;-94
2021/11/15 10:55:08;;;;;;;27.98;12.77;;;10.60;99.90;;;;;;5036114;28;20418;-93
2021/11/15 10:57:37;;;;;;;29.75;12.45;;;10.60;99.90;;;;;;5035583;28;20558;-94
2021/11/15 11:00:08;;;;;;;29.23;13.02;;;10.70;99.90;;;;;;5035385;28;20036;-94
2021/11/15 11:02:39;;;;;;;31.48;13.40;;;10.60;99.90;;;;;;5029574;28;20041;-95
2021/11/15 11:05:15;;;;;;;28.55;13.15;;;10.70;99.90;;;;;;5030417;28;20033;-93
2021/11/15 11:07:43;;;;;;;27.63;11.85;;;10.70;99.90;;;;;;5031068;28;20037;-95
2021/11/15 11:10:13;;;;;;;32.20;13.73;;;10.70;99.90;;;;;;5033914;28;20025;-93
2021/11/15 11:12:45;;;;;;;35.83;13.80;;;10.70;99.90;;;;;;5035720;28;20045;-93
2021/11/15 11:15:36;;;;;;;28.75;14.23;;;10.80;99.90;;;;;;5040859;28;20021;-95
2021/11/15 11:18:10;;;;;;;30.88;12.90;;;10.80;99.90;;;;;;5042652;28;20049;-93
2021/11/15 11:26:19;;;;;;;28.63;13.15;;;11.00;99.90;;;;;;5024370;28;20029;-94
2021/11/15 11:28:53;;;;;;;30.15;13.15;;;11.10;99.90;;;;;;5015563;28;20034;-94
2021/11/15 11:31:21;;;;;;;28.33;12.18;;;11.10;99.90;;;;;;5014272;28;20425;-94
2021/11/15 11:33:50;;;;;;;31.20;13.55;;;11.10;99.90;;;;;;5014854;28;20388;-95
2021/11/15 11:36:16;;;;;;;30.95;14.45;;;11.20;99.90;;;;;;5015144;28;20026;-96
2021/11/15 11:38:45;;;;;;;34.50;13.48;;;11.30;99.90;;;;;;5014981;28;20028;-95
2021/11/15 11:41:12;;;;;;;36.28;14.57;;;11.30;99.90;;;;;;5014359;28;20026;-94
2021/11/15 11:43:39;;;;;;;29.77;13.43;;;11.50;99.90;;;;;;5014119;28;20030;-94
2021/11/15 11:46:04;;;;;;;31.10;13.95;;;11.50;99.90;;;;;;5014656;28;20034;-95
2021/11/15 11:48:31;;;;;;;32.03;13.05;;;11.60;99.90;;;;;;5014913;28;20026;-94
2021/11/15 11:50:58;;;;;;;29.45;13.40;;;11.60;99.90;;;;;;5020721;28;20034;-94
2021/11/15 11:53:29;;;;;;;33.17;13.23;;;11.70;99.90;;;;;;5014620;28;20026;-95
2021/11/15 11:55:57;;;;;;;31.75;13.20;;;11.70;99.90;;;;;;5014275;28;20073;-94
2021/11/15 11:58:34;;;;;;;35.58;13.80;;;11.70;99.90;;;;;;5015884;28;20030;-92
2021/11/15 12:01:05;;;;;;;32.58;13.80;;;11.80;99.90;;;;;;5015945;28;20026;-93
2021/11/15 12:03:32;;;;;;;31.92;13.80;;;11.80;99.90;;;;;;5015657;28;20113;-93
2021/11/15 12:06:30;;;;;;;36.60;13.95;;;11.80;99.90;;;;;;5014795;28;20102;-93
2021/11/15 12:08:59;;;;;;;29.67;14.23;;;11.90;99.90;;;;;;5015281;28;20118;-94
2021/11/15 12:11:27;;;;;;;34.33;14.05;;;12.00;99.90;;;;;;5014885;28;20026;-94
2021/11/15 12:13:54;;;;;;;32.55;13.27;;;12.10;99.90;;;;;;5014603;28;20117;-93
2021/11/15 12:16:20;;;;;;;29.33;12.82;;;12.20;99.90;;;;;;5014702;28;20088;-93
2021/11/15 12:18:58;;;;;;;34.80;13.90;;;12.30;99.90;;;;;;5014857;28;20057;-94
2021/11/15 12:21:32;;;;;;;30.42;13.02;;;12.30;99.90;;;;;;5016628;28;20113;-93
2021/11/15 12:24:04;;;;;;;31.35;13.52;;;12.40;99.90;;;;;;5016491;28;20033;-95
2021/11/15 12:26:49;;;;;;;29.98;13.13;;;12.40;99.90;;;;;;5013063;28;20510;-95
2021/11/15 12:29:27;;;;;;;30.92;13.48;;;12.40;99.90;;;;;;5015160;28;20036;-94
2021/11/15 12:31:59;;;;;;;30.63;13.57;;;12.40;99.90;;;;;;5015281;28;20042;-94
2021/11/15 12:34:27;;;;;;;30.10;13.50;;;12.40;99.90;;;;;;5014975;28;20505;-94
2021/11/15 12:36:55;;;;;;;28.00;12.52;;;12.40;99.90;;;;;;5014345;28;20034;-95
2021/11/15 12:39:27;;;;;;;31.75;12.80;;;12.40;99.90;;;;;;5015381;28;20073;-94
2021/11/15 12:41:55;;;;;;;24.73;12.02;;;12.50;99.90;;;;;;5014450;28;20026;-93
2021/11/15 12:44:31;;;;;;;27.25;12.45;;;12.60;99.90;;;;;;5014503;28;20056;-93
2021/11/15 12:47:04;;;;;;;24.42;11.38;;;12.80;99.90;;;;;;5015256;28;20472;-94
2021/11/15 12:49:29;;;;;;;25.30;11.55;;;12.70;99.90;;;;;;5015035;28;20030;-93
2021/11/15 12:52:08;;;;;;;28.08;11.55;;;12.70;99.90;;;;;;5014299;28;20030;-93
2021/11/15 12:54:34;;;;;;;24.90;11.95;;;12.70;99.90;;;;;;5014084;28;20297;-94
2021/11/15 12:57:34;;;;;;;27.45;12.30;;;12.60;99.90;;;;;;5015085;28;20101;-92
2021/11/15 13:00:05;;;;;;;24.70;11.30;;;12.60;99.90;;;;;;4997279;28;20100;-93
2021/11/15 13:02:32;;;;;;;23.45;11.60;;;12.60;99.90;;;;;;5013867;28;20108;-94
2021/11/15 13:04:59;;;;;;;25.80;11.10;;;12.50;99.90;;;;;;5014223;28;20046;-94
2021/11/15 13:07:25;;;;;;;20.67;9.85;;;12.50;99.90;;;;;;5014062;28;20503;-94
2021/11/15 13:09:56;;;;;;;29.90;13.15;;;12.40;99.90;;;;;;5014252;28;20025;-96
2021/11/15 13:12:22;;;;;;;;;;;12.30;99.90;;;;;;5015143;28;20378;-95
2021/11/15 13:14:49;;;;;;;28.50;11.48;;;12.30;99.90;;;;;;5014644;28;19913;-94
2021/11/15 13:17:17;;;;;;;26.27;11.80;;;12.20;99.90;;;;;;5014077;28;20038;-96
2021/11/15 13:19:47;;;;;;;25.02;11.50;;;12.20;99.90;;;;;;5023307;28;20450;-95
2021/11/15 13:22:17;;;;;;;25.55;11.63;;;12.10;99.90;;;;;;5033835;28;20048;-94
2021/11/15 13:24:45;;;;;;;27.90;11.18;;;12.10;99.90;;;;;;5034261;28;20028;-94